Capo Vado — IPWV — position and weather

sailwx.info

Track history (hours):
 
Tides and Currents Weather Stations Pressure Air Temp Water Temp Dewpoint Dewpoint Depression Visibility Wind Speed Wind Dir Waves Ship Positions

Capo Vado

Last reported at 2014-Aug-27 14:30 UTC. Time now 2014-Aug-27 17:13 UTC.
Position N 44°18' E 008°29'.

Length 30 m.

Type: Tug. MMSI: 247228400.

Date/timePositionNaut miles runAvg speedWind from/ knotsBaromVisibWave heightAir tempDewpointWater temp
2014-Aug-27 14:30N 44°18' E 008°29'0 0.0
2014-Aug-27 11:28N 44°18' E 008°29'2 1.7
2014-Aug-27 10:29N 44°17' E 008°28'1 0.5
2014-Aug-27 08:16N 44°16' E 008°27'3 0.6
2014-Aug-27 03:32N 44°18' E 008°29'0 0.0
2014-Aug-27 02:23N 44°18' E 008°29'0 0.0
2014-Aug-26 23:23N 44°18' E 008°29'0 0.0
2014-Aug-26 10:17N 44°18' E 008°29'0 0.0
2014-Aug-26 02:17N 44°18' E 008°29'0 0.0
2014-Aug-26 01:26N 44°18' E 008°29'0 0.0
2014-Aug-26 00:26N 44°18' E 008°29'0 0.0
2014-Aug-25 23:05N 44°18' E 008°29'1 0.1
2014-Aug-25 12:10N 44°18' E 008°29'2 3.3
2014-Aug-25 11:32N 44°16' E 008°27'3 3.3
2014-Aug-25 10:32N 44°19' E 008°30'1 0.1
2014-Aug-24 23:17N 44°18' E 008°29'0 0.0
2014-Aug-24 07:17N 44°18' E 008°29'0 0.0
2014-Aug-24 03:29N 44°18' E 008°29'0 0.0
2014-Aug-24 02:26N 44°18' E 008°29'0 0.0
2014-Aug-23 00:08N 44°18' E 008°29'0 0.0
2014-Aug-22 18:32N 44°18' E 008°29'0 0.0
2014-Aug-22 11:29N 44°18' E 008°29'0 0.0
2014-Aug-22 10:11N 44°18' E 008°29'0 0.0
2014-Aug-22 08:06N 44°18' E 008°29'2 3.6
2014-Aug-22 07:31N 44°17' E 008°27'0 0.3
2014-Aug-22 06:13N 44°16' E 008°27'2 0.6
2014-Aug-22 02:16N 44°18' E 008°29'0 0.0
2014-Aug-21 11:31N 44°18' E 008°29'1 0.1
2014-Aug-21 05:25N 44°19' E 008°30'1 0.6
2014-Aug-21 04:32N 44°18' E 008°29'0 0.0
2014-Aug-21 03:17N 44°18' E 008°29'0 0.0
2014-Aug-21 02:29N 44°18' E 008°29'0 0.0
2014-Aug-20 23:14N 44°18' E 008°29'0 0.4
2014-Aug-20 22:17N 44°19' E 008°30'0 0.2
2014-Aug-20 20:26N 44°18' E 008°29'0 0.0
2014-Aug-20 19:29N 44°18' E 008°29'0 0.0
2014-Aug-20 14:26N 44°18' E 008°29'0 0.0
2014-Aug-20 10:20N 44°18' E 008°29'0 0.0
2014-Aug-20 07:05N 44°18' E 008°29'0 0.0
2014-Aug-20 06:32N 44°18' E 008°29'0 0.0
2014-Aug-20 03:32N 44°18' E 008°29'0 0.0
2014-Aug-20 02:14N 44°18' E 008°29'0 0.0
2014-Aug-20 01:32N 44°18' E 008°29'0 0.0
2014-Aug-20 00:32N 44°18' E 008°29'0 0.0
2014-Aug-19 23:32N 44°18' E 008°29'0 0.0
2014-Aug-19 22:26N 44°18' E 008°29'0 0.0
2014-Aug-19 18:11N 44°18' E 008°29'0 0.0
2014-Aug-19 15:32N 44°18' E 008°29'0 0.0
2014-Aug-19 07:26N 44°18' E 008°29'0 0.0
2014-Aug-19 05:29N 44°18' E 008°29'0 0.0
2014-Aug-19 04:08N 44°18' E 008°29'0 0.0
2014-Aug-19 03:23N 44°18' E 008°29'0 0.0
2014-Aug-19 02:32N 44°18' E 008°29'0 0.0
2014-Aug-19 01:20N 44°18' E 008°29'0 0.0
2014-Aug-19 00:11N 44°18' E 008°29'0 0.0
2014-Aug-18 23:26N 44°18' E 008°29'0 0.0
2014-Aug-18 21:32N 44°18' E 008°29'0 0.0
2014-Aug-18 19:29N 44°18' E 008°29'0 0.0
2014-Aug-18 11:32N 44°18' E 008°29'1 0.3
2014-Aug-18 08:04N 44°17' E 008°29'1 1.5
2014-Aug-18 07:19N 44°17' E 008°28'0 0.1
2014-Aug-18 06:33N 44°17' E 008°28'2 0.7
2014-Aug-18 03:23N 44°18' E 008°29'0 0.0
2014-Aug-18 01:29N 44°18' E 008°29'0 0.0
2014-Aug-18 00:20N 44°18' E 008°29'0 0.0
2014-Aug-17 14:33N 44°19' E 008°29'  
Track history (hours):
 
Tides and Currents Weather Stations Pressure Air Temp Water Temp Dewpoint Dewpoint Depression Visibility Wind Speed Wind Dir Waves Ship Positions

Capo Vado

Last reported at 2014-Aug-27 14:30 UTC. Time now 2014-Aug-27 17:13 UTC.
Position N 44°18' E 008°29'.

Length 30 m.

Type: Tug. MMSI: 247228400.

Date/timePositionNaut miles runAvg speedWind from/ knotsBaromVisibWave heightAir tempDewpointWater temp
2014-Aug-27 14:30N 44°18' E 008°29'0 0.0
2014-Aug-27 11:28N 44°18' E 008°29'2 1.7
2014-Aug-27 10:29N 44°17' E 008°28'1 0.5
2014-Aug-27 08:16N 44°16' E 008°27'3 0.6
2014-Aug-27 03:32N 44°18' E 008°29'0 0.0
2014-Aug-27 02:23N 44°18' E 008°29'0 0.0
2014-Aug-26 23:23N 44°18' E 008°29'0 0.0
2014-Aug-26 10:17N 44°18' E 008°29'0 0.0
2014-Aug-26 02:17N 44°18' E 008°29'0 0.0
2014-Aug-26 01:26N 44°18' E 008°29'0 0.0
2014-Aug-26 00:26N 44°18' E 008°29'0 0.0
2014-Aug-25 23:05N 44°18' E 008°29'1 0.1
2014-Aug-25 12:10N 44°18' E 008°29'2 3.3
2014-Aug-25 11:32N 44°16' E 008°27'3 3.3
2014-Aug-25 10:32N 44°19' E 008°30'1 0.1
2014-Aug-24 23:17N 44°18' E 008°29'0 0.0
2014-Aug-24 07:17N 44°18' E 008°29'0 0.0
2014-Aug-24 03:29N 44°18' E 008°29'0 0.0
2014-Aug-24 02:26N 44°18' E 008°29'0 0.0
2014-Aug-23 00:08N 44°18' E 008°29'0 0.0
2014-Aug-22 18:32N 44°18' E 008°29'0 0.0
2014-Aug-22 11:29N 44°18' E 008°29'0 0.0
2014-Aug-22 10:11N 44°18' E 008°29'0 0.0
2014-Aug-22 08:06N 44°18' E 008°29'2 3.6
2014-Aug-22 07:31N 44°17' E 008°27'0 0.3
2014-Aug-22 06:13N 44°16' E 008°27'2 0.6
2014-Aug-22 02:16N 44°18' E 008°29'0 0.0
2014-Aug-21 11:31N 44°18' E 008°29'1 0.1
2014-Aug-21 05:25N 44°19' E 008°30'1 0.6
2014-Aug-21 04:32N 44°18' E 008°29'0 0.0
2014-Aug-21 03:17N 44°18' E 008°29'0 0.0
2014-Aug-21 02:29N 44°18' E 008°29'0 0.0
2014-Aug-20 23:14N 44°18' E 008°29'0 0.4
2014-Aug-20 22:17N 44°19' E 008°30'0 0.2
2014-Aug-20 20:26N 44°18' E 008°29'0 0.0
2014-Aug-20 19:29N 44°18' E 008°29'0 0.0
2014-Aug-20 14:26N 44°18' E 008°29'0 0.0
2014-Aug-20 10:20N 44°18' E 008°29'0 0.0
2014-Aug-20 07:05N 44°18' E 008°29'0 0.0
2014-Aug-20 06:32N 44°18' E 008°29'0 0.0
2014-Aug-20 03:32N 44°18' E 008°29'0 0.0
2014-Aug-20 02:14N 44°18' E 008°29'0 0.0
2014-Aug-20 01:32N 44°18' E 008°29'0 0.0
2014-Aug-20 00:32N 44°18' E 008°29'0 0.0
2014-Aug-19 23:32N 44°18' E 008°29'0 0.0
2014-Aug-19 22:26N 44°18' E 008°29'0 0.0
2014-Aug-19 18:11N 44°18' E 008°29'0 0.0
2014-Aug-19 15:32N 44°18' E 008°29'0 0.0
2014-Aug-19 07:26N 44°18' E 008°29'0 0.0
2014-Aug-19 05:29N 44°18' E 008°29'0 0.0
2014-Aug-19 04:08N 44°18' E 008°29'0 0.0
2014-Aug-19 03:23N 44°18' E 008°29'0 0.0
2014-Aug-19 02:32N 44°18' E 008°29'0 0.0
2014-Aug-19 01:20N 44°18' E 008°29'0 0.0
2014-Aug-19 00:11N 44°18' E 008°29'0 0.0
2014-Aug-18 23:26N 44°18' E 008°29'0 0.0
2014-Aug-18 21:32N 44°18' E 008°29'0 0.0
2014-Aug-18 19:29N 44°18' E 008°29'0 0.0
2014-Aug-18 11:32N 44°18' E 008°29'1 0.3
2014-Aug-18 08:04N 44°17' E 008°29'1 1.5
2014-Aug-18 07:19N 44°17' E 008°28'0 0.1
2014-Aug-18 06:33N 44°17' E 008°28'2 0.7
2014-Aug-18 03:23N 44°18' E 008°29'0 0.0
2014-Aug-18 01:29N 44°18' E 008°29'0 0.0
2014-Aug-18 00:20N 44°18' E 008°29'0 0.0
2014-Aug-17 14:33N 44°19' E 008°29'  

Dump ship's entire track history